createdAt,value
2023-06-30T00:01:40.980Z,63.78
2023-06-30T00:04:09.234Z,63.36
2023-06-30T00:06:37.425Z,62.37
2023-06-30T00:09:05.426Z,62.56
2023-06-30T00:11:33.347Z,62.64
2023-06-30T00:14:01.476Z,62.61
2023-06-30T00:16:29.549Z,62.29
2023-06-30T00:18:57.961Z,61.92
2023-06-30T00:21:26.007Z,61.83
2023-06-30T00:23:54.064Z,61.38
2023-06-30T00:26:22.062Z,60.89
2023-06-30T00:28:50.012Z,60.58
2023-06-30T00:31:17.992Z,60.51
2023-06-30T00:33:48.094Z,60.39
2023-06-30T00:36:18.040Z,58.41
2023-06-30T00:38:46.139Z,56.72
2023-06-30T00:41:15.615Z,57.84
2023-06-30T00:43:44.242Z,57.68
2023-06-30T00:46:14.908Z,58.40
2023-06-30T00:48:43.153Z,59.02
2023-06-30T00:51:14.134Z,61.47
2023-06-30T00:53:42.269Z,63.51
2023-06-30T00:56:10.361Z,65.74
2023-06-30T00:58:38.834Z,66.63
2023-06-30T01:01:17.195Z,65.41
2023-06-30T01:03:57.135Z,64.50
2023-06-30T01:06:40.388Z,64.40
2023-06-30T01:09:15.665Z,63.90
2023-06-30T01:11:43.823Z,63.37
2023-06-30T01:14:12.725Z,62.97
2023-06-30T01:16:41.778Z,62.73
2023-06-30T01:19:23.161Z,61.74
2023-06-30T01:21:51.426Z,61.99
2023-06-30T01:24:19.374Z,61.94
2023-06-30T01:26:50.906Z,61.93
2023-06-30T01:29:19.219Z,61.34
2023-06-30T01:31:47.413Z,60.57
2023-06-30T01:34:15.508Z,59.69
2023-06-30T01:36:43.476Z,57.20
2023-06-30T01:39:11.564Z,56.25
2023-06-30T01:41:40.454Z,55.68
2023-06-30T01:44:08.530Z,56.90
2023-06-30T01:46:36.562Z,57.36
2023-06-30T01:49:04.599Z,56.97
2023-06-30T01:51:32.672Z,60.06
2023-06-30T01:54:00.615Z,63.22
2023-06-30T01:56:28.771Z,65.11
2023-06-30T01:58:56.777Z,66.03
2023-06-30T02:01:24.884Z,65.20
2023-06-30T02:03:53.477Z,64.72
2023-06-30T02:06:21.700Z,64.54
2023-06-30T02:08:49.754Z,64.15
2023-06-30T02:11:17.919Z,63.29
2023-06-30T02:13:45.996Z,62.75
2023-06-30T02:16:13.931Z,61.30
2023-06-30T02:18:42.151Z,61.53
2023-06-30T02:21:10.104Z,60.80
2023-06-30T02:23:38.080Z,60.12
2023-06-30T02:26:06.149Z,59.90
2023-06-30T02:28:34.206Z,59.69
2023-06-30T02:31:02.184Z,58.95
2023-06-30T02:33:30.282Z,56.91
2023-06-30T02:35:59.189Z,56.05
2023-06-30T02:38:27.554Z,56.29
2023-06-30T02:40:56.841Z,57.60
2023-06-30T02:43:24.754Z,59.53
2023-06-30T02:45:52.870Z,59.13
2023-06-30T02:48:21.238Z,59.77
2023-06-30T02:50:49.733Z,63.53
2023-06-30T02:53:18.079Z,65.60
2023-06-30T02:55:46.901Z,66.70
2023-06-30T02:58:15.718Z,66.36
2023-06-30T03:00:43.912Z,64.88
2023-06-30T03:03:12.661Z,63.62
2023-06-30T03:05:42.070Z,62.68
2023-06-30T03:08:11.116Z,62.06
2023-06-30T03:10:40.618Z,60.96
2023-06-30T03:13:08.647Z,61.13
2023-06-30T03:15:36.761Z,60.63
2023-06-30T03:18:05.330Z,60.35
2023-06-30T03:20:33.714Z,59.02
2023-06-30T03:23:01.792Z,56.21
2023-06-30T03:25:29.849Z,55.13
2023-06-30T03:27:58.238Z,55.00
2023-06-30T03:30:26.312Z,56.83
2023-06-30T03:32:54.462Z,58.32
2023-06-30T03:35:23.911Z,58.48
2023-06-30T03:37:53.489Z,59.41
2023-06-30T03:40:21.766Z,58.59
2023-06-30T03:42:49.697Z,62.21
2023-06-30T03:45:17.730Z,64.53
2023-06-30T03:47:45.767Z,64.24
2023-06-30T03:50:14.048Z,62.73
2023-06-30T03:52:42.145Z,58.90
2023-06-30T03:55:10.116Z,57.42
2023-06-30T03:57:38.119Z,59.42
2023-06-30T04:00:08.766Z,58.17
2023-06-30T04:02:41.360Z,58.62
2023-06-30T04:05:09.835Z,60.01
2023-06-30T04:07:39.036Z,59.23
2023-06-30T04:10:07.971Z,59.15
2023-06-30T04:12:36.102Z,60.84
2023-06-30T04:15:05.563Z,56.16
2023-06-30T04:17:33.546Z,53.48
2023-06-30T04:20:01.890Z,53.08
2023-06-30T04:22:29.961Z,55.66
2023-06-30T04:24:58.108Z,52.98
2023-06-30T04:27:26.193Z,53.73
2023-06-30T04:29:54.092Z,52.12
2023-06-30T04:32:22.189Z,50.20
2023-06-30T04:34:50.646Z,49.17
2023-06-30T04:37:18.695Z,48.36
2023-06-30T04:39:49.096Z,47.54
2023-06-30T04:42:17.467Z,44.84
2023-06-30T04:44:45.744Z,42.45
2023-06-30T04:47:13.870Z,40.96
2023-06-30T04:49:42.080Z,46.58
2023-06-30T04:52:10.093Z,43.45
2023-06-30T04:54:39.110Z,44.89
2023-06-30T04:57:07.325Z,41.82
2023-06-30T04:59:35.421Z,44.47
2023-06-30T05:02:04.024Z,38.80
2023-06-30T05:04:33.122Z,40.99
2023-06-30T05:07:01.066Z,40.29
2023-06-30T05:09:29.835Z,37.65
2023-06-30T05:11:57.822Z,43.59
2023-06-30T05:14:25.799Z,41.17
2023-06-30T05:16:55.890Z,41.86
2023-06-30T05:19:25.586Z,38.04
2023-06-30T05:21:54.077Z,41.57
2023-06-30T05:24:22.049Z,40.16
2023-06-30T05:26:50.921Z,41.63
2023-06-30T05:29:18.877Z,39.26
2023-06-30T05:31:47.129Z,36.70
2023-06-30T05:34:17.223Z,39.29
2023-06-30T05:36:45.817Z,36.98
2023-06-30T05:39:15.423Z,36.84
2023-06-30T05:41:43.595Z,35.10
2023-06-30T05:44:11.788Z,35.81
2023-06-30T05:46:40.285Z,35.43
2023-06-30T05:49:08.498Z,36.06
2023-06-30T05:51:37.162Z,34.80
2023-06-30T05:54:05.449Z,33.76
2023-06-30T05:56:33.369Z,34.85
2023-06-30T05:59:01.574Z,34.56
2023-06-30T06:01:29.547Z,33.47
2023-06-30T06:03:59.131Z,33.16
2023-06-30T06:06:27.533Z,32.89
2023-06-30T06:08:55.603Z,32.67
2023-06-30T06:11:23.552Z,31.89
2023-06-30T06:13:51.518Z,32.43
2023-06-30T06:16:20.004Z,32.41
2023-06-30T06:18:49.249Z,32.83
2023-06-30T06:21:20.185Z,32.00
2023-06-30T06:23:48.243Z,32.53
2023-06-30T06:26:18.017Z,32.90
2023-06-30T06:28:45.903Z,32.51
2023-06-30T06:31:13.972Z,31.57
2023-06-30T06:33:42.803Z,31.45
2023-06-30T06:36:11.548Z,32.10
2023-06-30T06:38:39.638Z,31.46
2023-06-30T06:41:07.751Z,30.72
2023-06-30T06:43:35.978Z,31.19
2023-06-30T06:46:03.966Z,30.81
2023-06-30T06:48:32.011Z,30.29
2023-06-30T06:51:02.269Z,30.71
2023-06-30T06:53:34.835Z,29.49
2023-06-30T06:56:04.639Z,29.15
2023-06-30T06:58:36.661Z,30.20
2023-06-30T07:01:05.218Z,29.39
2023-06-30T07:03:35.749Z,29.98
2023-06-30T07:06:04.375Z,30.67
2023-06-30T07:08:36.255Z,30.33
2023-06-30T07:11:05.357Z,30.28
2023-06-30T07:13:33.530Z,30.30
2023-06-30T07:16:02.024Z,29.44
2023-06-30T07:18:31.282Z,29.89
2023-06-30T07:20:59.478Z,29.02
2023-06-30T07:23:27.827Z,29.89
2023-06-30T07:25:55.999Z,29.40
2023-06-30T07:28:24.079Z,29.81
2023-06-30T07:30:52.484Z,29.29
2023-06-30T07:33:21.237Z,29.53
2023-06-30T07:35:49.587Z,29.36
2023-06-30T07:38:17.753Z,30.25
2023-06-30T07:40:55.795Z,31.00
2023-06-30T07:43:25.171Z,31.21
2023-06-30T07:45:53.186Z,31.99
2023-06-30T07:48:21.525Z,33.16
2023-06-30T07:51:03.266Z,33.90
2023-06-30T07:53:37.027Z,33.57
2023-06-30T07:56:05.491Z,33.67
2023-06-30T07:58:33.689Z,34.65
2023-06-30T08:01:02.113Z,34.91
2023-06-30T08:03:30.494Z,33.68
2023-06-30T08:06:00.900Z,33.37
2023-06-30T08:08:32.680Z,33.91
2023-06-30T08:11:00.840Z,34.86
2023-06-30T08:13:29.068Z,35.68
2023-06-30T08:15:57.372Z,36.58
2023-06-30T08:18:32.214Z,36.89
2023-06-30T08:21:03.751Z,37.82
2023-06-30T08:23:32.011Z,37.21
2023-06-30T08:26:00.035Z,35.14
2023-06-30T08:28:28.177Z,33.73
2023-06-30T08:30:56.830Z,33.73
2023-06-30T08:36:02.502Z,35.42
2023-06-30T08:38:30.806Z,36.13
2023-06-30T08:40:59.511Z,37.25
2023-06-30T08:43:29.187Z,37.62
2023-06-30T08:45:57.214Z,37.62
2023-06-30T08:48:25.195Z,37.21
2023-06-30T08:50:53.832Z,36.31
2023-06-30T08:53:25.038Z,35.40
2023-06-30T08:55:52.997Z,35.69
2023-06-30T08:58:25.231Z,36.16
2023-06-30T09:00:55.655Z,35.88
2023-06-30T09:03:24.150Z,36.37
2023-06-30T09:05:55.800Z,35.88
2023-06-30T09:08:25.170Z,35.79
2023-06-30T09:10:53.261Z,36.28
2023-06-30T09:13:23.996Z,36.47
2023-06-30T09:15:52.779Z,36.85
2023-06-30T09:18:20.710Z,37.38
2023-06-30T09:20:48.657Z,37.77
2023-06-30T09:23:17.608Z,38.01
2023-06-30T09:25:46.744Z,38.10
2023-06-30T09:28:15.987Z,38.54
2023-06-30T09:30:46.962Z,37.62
2023-06-30T09:33:16.780Z,37.06
2023-06-30T09:35:47.603Z,36.25
2023-06-30T09:38:18.515Z,35.33
2023-06-30T09:40:48.571Z,34.95
2023-06-30T09:43:21.880Z,34.77
2023-06-30T09:46:01.233Z,35.11
2023-06-30T09:48:37.002Z,35.43
2023-06-30T09:51:08.286Z,35.41
2023-06-30T09:53:37.946Z,35.94
2023-06-30T09:56:07.032Z,36.30
2023-06-30T09:58:37.360Z,35.70
2023-06-30T10:01:05.553Z,35.25
2023-06-30T10:03:33.942Z,34.34
2023-06-30T10:06:02.123Z,34.11
2023-06-30T10:08:30.064Z,34.17
2023-06-30T10:10:58.313Z,34.37
2023-06-30T10:13:27.001Z,34.60
2023-06-30T10:15:55.129Z,34.31
2023-06-30T10:18:23.600Z,33.51
2023-06-30T10:20:51.659Z,33.35
2023-06-30T10:23:21.042Z,33.52
2023-06-30T10:25:50.398Z,33.70
2023-06-30T10:28:19.482Z,33.49
2023-06-30T10:30:50.739Z,32.37
2023-06-30T10:33:18.934Z,32.24
2023-06-30T10:35:47.467Z,32.27
2023-06-30T10:38:16.489Z,32.88
2023-06-30T10:40:45.201Z,33.01
2023-06-30T10:43:14.992Z,32.82
2023-06-30T10:46:15.153Z,32.60
2023-06-30T10:48:43.069Z,33.35
2023-06-30T10:51:12.698Z,32.97
2023-06-30T10:53:44.149Z,33.05
2023-06-30T10:56:12.057Z,33.34
2023-06-30T10:58:44.164Z,32.70
2023-06-30T11:01:12.243Z,32.27
2023-06-30T11:04:09.827Z,32.43
2023-06-30T11:06:37.918Z,33.07
2023-06-30T11:09:13.105Z,33.26
2023-06-30T11:11:51.868Z,32.41
2023-06-30T11:15:01.682Z,32.64
2023-06-30T11:17:55.680Z,33.16
2023-06-30T11:20:27.401Z,33.40
2023-06-30T11:23:06.810Z,33.32
2023-06-30T11:25:35.338Z,33.20
2023-06-30T11:28:05.918Z,33.51
2023-06-30T11:30:38.349Z,33.52
2023-06-30T11:33:07.737Z,33.61
2023-06-30T11:35:36.812Z,33.59
2023-06-30T11:38:05.111Z,33.57
2023-06-30T11:40:33.023Z,33.23
2023-06-30T11:43:04.117Z,32.68
2023-06-30T11:45:32.165Z,32.75
2023-06-30T11:48:00.258Z,33.40
2023-06-30T11:50:29.253Z,33.75
2023-06-30T11:52:57.246Z,34.01
2023-06-30T11:55:27.747Z,34.02
2023-06-30T11:57:56.232Z,34.25
2023-06-30T12:00:24.988Z,34.11
2023-06-30T12:02:59.580Z,33.83
2023-06-30T12:05:28.376Z,33.75
2023-06-30T12:07:57.549Z,33.46
2023-06-30T12:10:39.239Z,33.51
2023-06-30T12:13:09.521Z,33.95
2023-06-30T12:15:38.593Z,34.46
2023-06-30T12:18:07.054Z,35.08
2023-06-30T12:20:50.568Z,35.45
2023-06-30T12:23:18.566Z,35.29
2023-06-30T12:25:47.927Z,34.53
2023-06-30T12:28:15.914Z,34.84
2023-06-30T12:30:45.548Z,34.96
2023-06-30T12:33:20.691Z,34.66
2023-06-30T12:35:50.803Z,34.10
2023-06-30T12:38:19.708Z,33.73
2023-06-30T12:40:47.881Z,34.10
2023-06-30T12:43:17.646Z,33.94
2023-06-30T12:45:45.661Z,33.47
2023-06-30T12:48:13.875Z,32.60
2023-06-30T12:50:42.206Z,32.51
2023-06-30T12:53:10.243Z,32.85
2023-06-30T12:55:38.482Z,33.36
2023-06-30T12:58:06.380Z,33.76
2023-06-30T13:00:34.345Z,34.10
2023-06-30T13:03:02.450Z,34.55
2023-06-30T13:05:30.787Z,35.00
2023-06-30T13:07:58.774Z,35.29
2023-06-30T13:10:29.011Z,34.48
2023-06-30T13:12:59.662Z,33.97
2023-06-30T13:15:30.734Z,33.47
2023-06-30T13:17:59.148Z,33.92
2023-06-30T13:20:27.436Z,33.94
2023-06-30T13:23:10.089Z,34.07
2023-06-30T13:27:17.532Z,34.30
2023-06-30T13:29:49.642Z,34.12
2023-06-30T13:32:17.894Z,34.42
2023-06-30T13:34:46.741Z,33.83
2023-06-30T13:37:15.298Z,34.03
2023-06-30T13:39:43.312Z,34.09
2023-06-30T13:42:11.405Z,33.39
2023-06-30T13:44:39.278Z,33.75
2023-06-30T13:47:07.381Z,33.82
2023-06-30T13:49:35.489Z,34.28
2023-06-30T13:52:03.826Z,34.44
2023-06-30T13:54:32.209Z,34.68
2023-06-30T13:57:00.406Z,35.04
2023-06-30T13:59:28.377Z,34.45
2023-06-30T14:01:56.493Z,34.89
2023-06-30T14:04:24.446Z,34.60
2023-06-30T14:06:52.497Z,34.85
2023-06-30T14:09:20.491Z,35.01
2023-06-30T14:11:48.462Z,35.27
2023-06-30T14:14:16.617Z,35.67
2023-06-30T14:16:44.754Z,35.80
2023-06-30T14:19:13.087Z,35.94
2023-06-30T14:21:41.184Z,36.41
2023-06-30T14:24:09.796Z,36.36
2023-06-30T14:26:37.878Z,35.91
2023-06-30T14:29:05.909Z,35.02
2023-06-30T14:31:33.982Z,34.59
2023-06-30T14:34:02.036Z,34.62
2023-06-30T14:36:30.062Z,34.59
2023-06-30T14:38:58.003Z,34.98
2023-06-30T14:41:26.094Z,35.30
2023-06-30T14:43:54.747Z,35.90
2023-06-30T14:46:22.790Z,36.05
2023-06-30T14:48:50.764Z,35.84
2023-06-30T14:51:18.739Z,35.65
2023-06-30T14:53:46.763Z,35.55
2023-06-30T14:56:14.826Z,35.82
2023-06-30T14:58:44.830Z,35.95
2023-06-30T15:01:12.911Z,35.84
2023-06-30T15:03:40.987Z,35.94
2023-06-30T15:06:10.012Z,36.47
2023-06-30T15:08:38.865Z,36.44
2023-06-30T15:11:06.814Z,36.45
2023-06-30T15:13:36.629Z,36.15
2023-06-30T15:16:06.782Z,36.68
2023-06-30T15:18:34.777Z,36.64
2023-06-30T15:21:02.839Z,36.24
2023-06-30T15:23:30.885Z,36.19
2023-06-30T15:25:58.991Z,36.78
2023-06-30T15:28:27.032Z,38.03
2023-06-30T15:30:55.009Z,39.21
2023-06-30T15:33:23.168Z,39.50
2023-06-30T15:35:51.230Z,40.38
2023-06-30T15:38:19.201Z,40.62
2023-06-30T15:40:48.141Z,41.19
2023-06-30T15:43:16.933Z,41.22
2023-06-30T15:45:48.005Z,41.12
2023-06-30T15:48:16.429Z,41.27
2023-06-30T15:50:47.495Z,41.61
2023-06-30T15:53:15.552Z,41.47
2023-06-30T15:55:43.950Z,41.75
2023-06-30T15:58:12.373Z,42.32
2023-06-30T16:00:40.669Z,43.00
2023-06-30T16:03:08.774Z,43.57
2023-06-30T16:05:37.235Z,43.60
2023-06-30T16:08:05.930Z,43.82
2023-06-30T16:10:33.794Z,44.02
2023-06-30T16:13:06.340Z,44.52
2023-06-30T16:15:36.360Z,45.01
2023-06-30T16:18:04.338Z,45.25
2023-06-30T16:20:32.590Z,45.55
2023-06-30T16:23:00.472Z,45.93
2023-06-30T16:25:28.493Z,46.28
2023-06-30T16:27:56.695Z,46.98
2023-06-30T16:30:31.347Z,47.80
2023-06-30T16:33:00.195Z,47.91
2023-06-30T16:35:28.511Z,48.10
2023-06-30T16:38:00.202Z,48.25
2023-06-30T16:40:28.348Z,48.35
2023-06-30T16:42:56.450Z,48.31
2023-06-30T16:45:25.824Z,48.77
2023-06-30T16:47:54.569Z,48.89
2023-06-30T16:50:22.884Z,48.95
2023-06-30T16:52:50.932Z,49.20
2023-06-30T16:55:18.799Z,49.63
2023-06-30T16:57:48.498Z,50.16
2023-06-30T17:00:17.589Z,50.03
2023-06-30T17:02:48.492Z,50.00
2023-06-30T17:05:16.906Z,50.45
2023-06-30T17:07:45.089Z,50.56
2023-06-30T17:10:13.627Z,50.10
2023-06-30T17:12:41.686Z,50.20
2023-06-30T17:15:10.552Z,50.03
2023-06-30T17:17:38.697Z,49.90
2023-06-30T17:20:07.983Z,49.98
2023-06-30T17:22:36.099Z,49.97
2023-06-30T17:25:05.789Z,50.20
2023-06-30T17:27:34.296Z,50.28
2023-06-30T17:30:03.042Z,50.27
2023-06-30T17:32:31.161Z,50.60
2023-06-30T17:34:59.248Z,50.39
2023-06-30T17:37:27.296Z,50.66
2023-06-30T17:39:55.311Z,50.72
2023-06-30T17:42:23.418Z,50.96
2023-06-30T17:44:51.476Z,51.16
2023-06-30T17:47:19.503Z,51.12
2023-06-30T17:49:48.364Z,51.06
2023-06-30T17:52:16.548Z,51.32
2023-06-30T17:54:45.764Z,51.29
2023-06-30T17:57:14.530Z,51.48
2023-06-30T17:59:42.546Z,51.74
2023-06-30T18:02:10.495Z,52.93
2023-06-30T18:04:38.636Z,53.47
2023-06-30T18:07:13.560Z,53.47
2023-06-30T18:09:43.882Z,53.29
2023-06-30T18:12:12.300Z,53.49
2023-06-30T18:14:42.013Z,53.45
2023-06-30T18:17:10.028Z,53.44
2023-06-30T18:19:40.389Z,53.57
2023-06-30T18:22:09.066Z,53.49
2023-06-30T18:24:37.049Z,53.69
2023-06-30T18:27:05.514Z,53.86
2023-06-30T18:29:33.472Z,54.15
2023-06-30T18:32:01.563Z,54.22
2023-06-30T18:34:31.163Z,54.40
2023-06-30T18:36:59.248Z,54.40
2023-06-30T18:39:27.247Z,54.28
2023-06-30T18:41:56.044Z,54.29
2023-06-30T18:44:26.166Z,54.33
2023-06-30T18:46:54.335Z,54.41
2023-06-30T18:49:25.726Z,54.61
2023-06-30T18:51:55.246Z,54.79
2023-06-30T18:54:23.934Z,54.92
2023-06-30T18:56:51.941Z,54.97
2023-06-30T18:59:19.866Z,55.44
2023-06-30T19:01:48.089Z,55.61
2023-06-30T19:04:16.864Z,55.54
2023-06-30T19:06:45.137Z,55.80
2023-06-30T19:09:14.029Z,55.82
2023-06-30T19:11:42.553Z,56.05
2023-06-30T19:14:10.478Z,56.13
2023-06-30T19:16:38.466Z,56.14
2023-06-30T19:19:06.567Z,56.14
2023-06-30T19:21:34.807Z,56.23
2023-06-30T19:24:03.134Z,56.33
2023-06-30T19:26:31.271Z,56.43
2023-06-30T19:28:59.330Z,56.48
2023-06-30T19:31:27.529Z,56.70
2023-06-30T19:33:56.069Z,56.81
2023-06-30T19:36:26.400Z,57.06
2023-06-30T19:38:54.619Z,57.28
2023-06-30T19:41:24.865Z,57.43
2023-06-30T19:43:52.874Z,57.44
2023-06-30T19:46:21.004Z,57.56
2023-06-30T19:48:49.046Z,57.67
2023-06-30T19:51:17.097Z,57.92
2023-06-30T19:53:45.047Z,58.04
2023-06-30T19:56:14.983Z,58.27
2023-06-30T19:58:43.578Z,58.39
2023-06-30T20:01:12.320Z,58.45
2023-06-30T20:03:40.516Z,58.39
2023-06-30T20:06:08.759Z,58.66
2023-06-30T20:08:37.519Z,58.81
2023-06-30T20:11:05.600Z,58.98
2023-06-30T20:13:33.571Z,59.20
2023-06-30T20:16:03.022Z,59.53
2023-06-30T20:18:31.124Z,59.52
2023-06-30T20:20:59.395Z,59.57
2023-06-30T20:23:27.505Z,59.74
2023-06-30T20:25:55.604Z,59.93
2023-06-30T20:28:23.543Z,60.04
2023-06-30T20:30:51.933Z,60.32
2023-06-30T20:33:20.174Z,60.51
2023-06-30T20:35:48.261Z,60.50
2023-06-30T20:38:19.176Z,60.66
2023-06-30T20:40:47.775Z,60.71
2023-06-30T20:43:16.135Z,60.70
2023-06-30T20:45:44.342Z,60.79
2023-06-30T20:48:12.459Z,60.99
2023-06-30T20:50:41.452Z,61.05
2023-06-30T20:53:09.430Z,61.10
2023-06-30T20:55:37.402Z,61.09
2023-06-30T20:58:05.476Z,61.15
2023-06-30T21:00:33.569Z,61.19
2023-06-30T21:03:01.852Z,61.29
2023-06-30T21:05:30.501Z,61.36
2023-06-30T21:07:58.410Z,61.42
2023-06-30T21:10:27.478Z,61.36
2023-06-30T21:13:00.737Z,61.44
2023-06-30T21:15:29.752Z,61.57
2023-06-30T21:17:57.819Z,61.80
2023-06-30T21:20:26.097Z,61.75
2023-06-30T21:22:54.192Z,61.90
2023-06-30T21:25:22.448Z,62.10
2023-06-30T21:27:50.505Z,62.32
2023-06-30T21:30:19.223Z,62.74
2023-06-30T21:32:47.859Z,66.80
2023-06-30T21:35:15.908Z,70.41
2023-06-30T21:37:43.879Z,71.11
2023-06-30T21:40:12.087Z,70.50
2023-06-30T21:42:39.994Z,68.75
2023-06-30T21:45:08.701Z,67.43
2023-06-30T21:47:36.853Z,66.56
2023-06-30T21:50:05.590Z,65.63
2023-06-30T21:52:33.672Z,64.45
2023-06-30T21:55:03.980Z,63.35
2023-06-30T21:57:34.353Z,62.19
2023-06-30T22:00:04.068Z,61.61
2023-06-30T22:02:34.527Z,61.24
2023-06-30T22:05:02.918Z,59.94
2023-06-30T22:07:31.393Z,58.03
2023-06-30T22:09:59.880Z,57.50
2023-06-30T22:12:28.063Z,58.61
2023-06-30T22:14:56.175Z,59.78
2023-06-30T22:17:24.150Z,59.98
2023-06-30T22:19:52.307Z,59.58
2023-06-30T22:22:20.253Z,60.53
2023-06-30T22:24:48.266Z,59.70
2023-06-30T22:27:16.187Z,59.39
2023-06-30T22:29:44.248Z,59.77
2023-06-30T22:32:13.355Z,60.11
2023-06-30T22:34:41.841Z,60.29
2023-06-30T22:37:09.939Z,60.61
2023-06-30T22:39:37.906Z,61.10
2023-06-30T22:42:06.724Z,61.44
2023-06-30T22:44:34.632Z,61.52
2023-06-30T22:47:02.645Z,61.78
2023-06-30T22:49:30.607Z,62.07
2023-06-30T22:51:58.624Z,62.08
2023-06-30T22:54:26.614Z,62.35
2023-06-30T22:56:54.564Z,66.54
2023-06-30T22:59:23.287Z,71.17
2023-06-30T23:01:51.364Z,71.56
2023-06-30T23:04:19.495Z,69.75
2023-06-30T23:06:47.611Z,68.93
2023-06-30T23:09:15.628Z,67.67
2023-06-30T23:11:43.640Z,66.13
2023-06-30T23:14:12.180Z,65.88
2023-06-30T23:16:40.100Z,65.53
2023-06-30T23:19:08.565Z,64.74
2023-06-30T23:21:38.046Z,63.81
2023-06-30T23:24:12.960Z,63.36
2023-06-30T23:26:41.752Z,63.20
2023-06-30T23:29:10.132Z,61.77
2023-06-30T23:31:40.509Z,61.42
2023-06-30T23:34:08.980Z,61.75
2023-06-30T23:36:37.550Z,61.78
2023-06-30T23:39:05.799Z,61.48
2023-06-30T23:41:33.915Z,60.78
2023-06-30T23:44:02.079Z,60.67
2023-06-30T23:46:31.861Z,60.28
2023-06-30T23:49:00.170Z,60.18
2023-06-30T23:51:28.169Z,59.77
2023-06-30T23:53:56.194Z,58.59
2023-06-30T23:56:24.140Z,58.43
2023-06-30T23:58:52.084Z,58.64
